createdAt,value
2022-08-13T00:00:12.850Z,8.1
2022-08-13T00:05:42.654Z,8.2
2022-08-13T00:11:28.157Z,8.1
2022-08-13T00:17:50.054Z,8.2
2022-08-13T00:23:58.266Z,8.2
2022-08-13T00:29:52.484Z,8.2
2022-08-13T00:34:56.695Z,8.2
2022-08-13T00:41:07.452Z,8.3
2022-08-13T00:47:18.159Z,8.4
2022-08-13T00:53:42.116Z,8.4
2022-08-13T00:59:43.762Z,8.4
2022-08-13T01:05:50.045Z,8.5
2022-08-13T01:12:00.682Z,8.5
2022-08-13T01:18:11.372Z,8.5
2022-08-13T01:24:14.563Z,8.5
2022-08-13T01:30:24.511Z,8.6
2022-08-13T01:36:55.039Z,8.6
2022-08-13T01:42:46.179Z,8.6
2022-08-13T01:48:59.720Z,8.6
2022-08-13T01:55:07.174Z,8.6
2022-08-13T02:01:17.882Z,8.6
2022-08-13T02:07:28.503Z,8.4
2022-08-13T02:13:55.571Z,8.4
2022-08-13T02:21:18.001Z,8.5
2022-08-13T02:27:22.865Z,8.6
2022-08-13T02:33:41.490Z,8.7
2022-08-13T02:39:44.421Z,8.5
2022-08-13T02:45:54.840Z,8.4
2022-08-13T02:52:07.648Z,8.4
2022-08-13T02:58:16.168Z,8.5
2022-08-13T03:04:32.795Z,8.5
2022-08-13T03:10:40.211Z,8.5
2022-08-13T03:16:48.162Z,8.6
2022-08-13T03:22:50.682Z,8.6
2022-08-13T03:29:01.367Z,8.6
2022-08-13T03:35:14.952Z,8.7
2022-08-13T03:41:22.657Z,8.7
2022-08-13T03:47:33.335Z,8.6
2022-08-13T03:53:44.289Z,8.6
2022-08-13T04:00:00.864Z,8.6
2022-08-13T04:06:05.324Z,8.7
2022-08-13T04:12:17.840Z,8.7
2022-08-13T04:19:32.593Z,8.6
2022-08-13T04:25:43.252Z,8.6
2022-08-13T04:31:54.754Z,8.7
2022-08-13T04:38:04.622Z,8.7
2022-08-13T04:43:25.722Z,8.7
2022-08-13T04:49:36.375Z,8.7
2022-08-13T04:56:08.634Z,8.7
2022-08-13T05:02:01.775Z,8.8
2022-08-13T05:08:08.379Z,8.9
2022-08-13T05:14:19.053Z,9
2022-08-13T05:20:35.459Z,9
2022-08-13T05:26:56.904Z,9.1
2022-08-13T05:32:44.577Z,9.1
2022-08-13T05:38:53.538Z,9.2
2022-08-13T05:45:09.040Z,9.2
2022-08-13T05:51:14.898Z,10.1
2022-08-13T05:57:25.531Z,10.2
2022-08-13T06:04:16.854Z,10.4
2022-08-13T06:09:46.885Z,10
2022-08-13T06:16:05.053Z,10.4
2022-08-13T06:23:15.125Z,10.5
2022-08-13T06:29:24.805Z,10.6
2022-08-13T06:35:45.039Z,10.4
2022-08-13T06:42:01.970Z,10.4
2022-08-13T06:47:59.865Z,10.5
2022-08-13T06:54:23.122Z,10.7
2022-08-13T07:00:26.795Z,10.4
2022-08-13T07:06:28.855Z,10.7
2022-08-13T07:12:39.611Z,10.7
2022-08-13T07:17:54.280Z,10.7
2022-08-13T07:24:38.635Z,11
2022-08-13T07:30:05.541Z,11
2022-08-13T07:36:16.220Z,11.3
2022-08-13T07:42:29.984Z,11.3
2022-08-13T07:48:43.717Z,10.9
2022-08-13T07:54:49.638Z,11
2022-08-13T08:00:58.866Z,11
2022-08-13T08:07:10.174Z,10.9
2022-08-13T08:13:20.209Z,11.3
2022-08-13T08:20:14.544Z,11.1
2022-08-13T08:25:34.305Z,11
2022-08-13T08:32:00.061Z,11
2022-08-13T08:37:59.270Z,10.6
2022-08-13T08:44:05.372Z,11.2
2022-08-13T08:49:16.811Z,11.6
2022-08-13T08:55:22.868Z,11.7
2022-08-13T09:01:31.420Z,11.4
2022-08-13T09:07:42.251Z,10.9
2022-08-13T09:16:21.040Z,11.4
2022-08-13T09:21:26.302Z,11.5
2022-08-13T09:28:11.094Z,11.3
2022-08-13T09:33:58.984Z,11.2
2022-08-13T09:41:08.600Z,11.5
2022-08-13T09:46:20.019Z,11.4
2022-08-13T09:52:27.300Z,11.4
2022-08-13T09:58:42.356Z,11.8
2022-08-13T10:04:48.623Z,10.7
2022-08-13T10:10:59.280Z,10.7
2022-08-13T10:17:09.946Z,10.4
2022-08-13T10:24:42.971Z,11
2022-08-13T10:32:07.775Z,11.4
2022-08-13T10:39:44.406Z,11.1
2022-08-13T10:46:54.203Z,10.7
2022-08-13T10:52:03.699Z,10.7
2022-08-13T10:58:09.956Z,11
2022-08-13T11:04:15.256Z,10.4
2022-08-13T11:10:32.649Z,10.2
2022-08-13T11:16:36.842Z,10.7
2022-08-13T11:22:49.983Z,10.7
2022-08-13T11:30:12.043Z,10.2
2022-08-13T11:36:22.737Z,9.8
2022-08-13T11:42:33.383Z,10
2022-08-13T11:49:51.303Z,9.8
2022-08-13T11:56:04.467Z,9.9
2022-08-13T12:02:14.984Z,10
2022-08-13T12:09:00.865Z,9.5
2022-08-13T12:13:43.374Z,9.6
2022-08-13T12:19:45.609Z,9.2
2022-08-13T12:26:02.820Z,9.6
2022-08-13T12:33:22.183Z,9.6
2022-08-13T12:39:52.133Z,9.2
2022-08-13T12:47:04.729Z,9.2
2022-08-13T12:54:31.086Z,9.2
2022-08-13T13:00:40.182Z,9.1
2022-08-13T13:05:44.920Z,9.2
2022-08-13T13:10:49.945Z,9.2
2022-08-13T13:17:00.313Z,9.1
2022-08-13T13:23:10.974Z,9.3
2022-08-13T13:29:21.634Z,9.7
2022-08-13T13:34:26.391Z,9.2
2022-08-13T13:40:41.187Z,9
2022-08-13T13:46:49.809Z,9.1
2022-08-13T13:53:21.234Z,9.2
2022-08-13T13:59:09.066Z,9
2022-08-13T14:04:13.861Z,8.9
2022-08-13T14:11:44.155Z,8.6
2022-08-13T14:19:03.403Z,8.7
2022-08-13T14:26:28.187Z,9
2022-08-13T14:32:41.417Z,8.7
2022-08-13T14:37:51.844Z,8.7
2022-08-13T14:43:17.053Z,8.9
2022-08-13T14:49:23.552Z,8.6
2022-08-13T14:55:34.251Z,8.4
2022-08-13T15:03:12.328Z,8.7
2022-08-13T15:10:32.006Z,8.3
2022-08-13T15:17:56.839Z,8.1
2022-08-13T15:23:51.101Z,8.1
2022-08-13T15:28:55.841Z,8.5
2022-08-13T15:35:06.504Z,8
2022-08-13T15:41:17.186Z,8.8
2022-08-13T15:47:27.849Z,8.9
2022-08-13T15:53:38.500Z,8.7
2022-08-13T15:59:49.179Z,8.7
2022-08-13T16:05:59.834Z,8.7
2022-08-13T16:12:11.126Z,8.8
2022-08-13T16:18:28.317Z,8.9
2022-08-13T16:24:23.652Z,9.2
2022-08-13T16:30:34.311Z,8.6
2022-08-13T16:36:44.973Z,8.9
2022-08-13T16:42:55.641Z,8.3
2022-08-13T16:49:06.331Z,8.8
2022-08-13T16:55:16.982Z,9
2022-08-13T17:01:30.921Z,9
2022-08-13T17:07:38.324Z,9
2022-08-13T17:14:05.411Z,8.5
2022-08-13T17:20:16.067Z,8.8
2022-08-13T17:26:18.662Z,9
2022-08-13T17:32:29.361Z,8.8
2022-08-13T17:38:39.875Z,8.8
2022-08-13T17:44:51.256Z,8.8
2022-08-13T17:51:08.302Z,8.9
2022-08-13T17:57:15.249Z,8.9
2022-08-13T18:03:24.357Z,9
2022-08-13T18:08:27.849Z,8.9
2022-08-13T18:14:49.735Z,9.1
2022-08-13T18:20:48.623Z,9.2
2022-08-13T18:26:57.500Z,9.1
2022-08-13T18:33:02.526Z,9.2
2022-08-13T18:39:14.741Z,9.2
2022-08-13T18:45:24.998Z,9.7
2022-08-13T18:51:41.109Z,9.9
2022-08-13T18:57:44.427Z,9.8
2022-08-13T19:04:00.631Z,9.8
2022-08-13T19:10:05.777Z,10
2022-08-13T19:16:17.851Z,10.1
2022-08-13T19:22:31.955Z,10
2022-08-13T19:28:34.478Z,10.1
2022-08-13T19:34:40.751Z,10
2022-08-13T19:40:52.865Z,9.9
2022-08-13T19:46:07.809Z,9.9
2022-08-13T19:52:14.477Z,9.9
2022-08-13T19:58:26.093Z,9.8
2022-08-13T20:04:39.439Z,9.9
2022-08-13T20:10:46.490Z,9.8
2022-08-13T20:16:57.167Z,9.9
2022-08-13T20:23:07.947Z,9.9
2022-08-13T20:29:18.360Z,9.9
2022-08-13T20:35:22.056Z,9.9
2022-08-13T20:41:48.384Z,9.9
2022-08-13T20:48:03.605Z,9.9
2022-08-13T20:55:15.756Z,9.8
2022-08-13T21:01:18.213Z,9.6
2022-08-13T21:07:28.450Z,9.7
2022-08-13T21:13:39.117Z,9.8
2022-08-13T21:19:58.284Z,9.8
2022-08-13T21:26:02.840Z,9.8
2022-08-13T21:32:10.382Z,9.5
2022-08-13T21:38:13.602Z,9.8
2022-08-13T21:44:26.777Z,9.8
2022-08-13T21:50:34.937Z,9.8
2022-08-13T21:56:45.566Z,9.7
2022-08-13T22:02:56.244Z,9.7
2022-08-13T22:09:06.924Z,9.5
2022-08-13T22:14:28.025Z,9.7
2022-08-13T22:20:38.684Z,9.7
2022-08-13T22:26:49.386Z,9.8
2022-08-13T22:32:51.851Z,9.8
2022-08-13T22:39:02.512Z,9.9
2022-08-13T22:45:14.690Z,9.9
2022-08-13T22:51:24.340Z,10
2022-08-13T22:57:34.521Z,10
2022-08-13T23:03:45.426Z,10
2022-08-13T23:09:55.869Z,10
2022-08-13T23:16:06.505Z,10.1
2022-08-13T23:22:29.677Z,10.2
2022-08-13T23:28:20.926Z,10.2
2022-08-13T23:34:30.373Z,10.3
2022-08-13T23:40:40.998Z,10.4
2022-08-13T23:46:53.904Z,10.6
2022-08-13T23:54:16.482Z,11
